Time;durP1;ratioP1;P1;durP2;ratioP2;P2;SDS_P1;SDS_P2;PMS_P1;PMS_P2;Temp;Humidity;BMP_temperature;BMP_pressure;BME280_temperature;BME280_humidity;BME280_pressure;Samples;Min_cycle;Max_cycle;Signal;HPM_P1;HPM_P2
2023/12/21 00:02:20;;;;;;;30.80;17.02;;;;;;;-143.54;100.00;59916.91;5093621;28;20530;-81
2023/12/21 00:04:46;;;;;;;33.13;16.40;;;;;;;-143.54;100.00;59916.91;5100607;28;20035;-81
2023/12/21 00:07:11;;;;;;;37.70;17.73;;;;;;;-143.54;100.00;59916.91;5097655;28;20026;-81
2023/12/21 00:09:36;;;;;;;41.53;18.88;;;;;;;-143.54;100.00;59916.91;5100168;28;20039;-81
2023/12/21 00:12:02;;;;;;;35.67;16.35;;;;;;;-143.54;100.00;59916.91;5096152;28;20024;-81
2023/12/21 00:14:30;;;;;;;35.50;17.45;;;;;;;-143.54;100.00;59916.91;5100875;28;20031;-81
2023/12/21 00:16:56;;;;;;;35.17;16.27;;;;;;;-143.54;100.00;59916.91;5095151;28;20024;-81
2023/12/21 00:19:21;;;;;;;35.22;16.23;;;;;;;-143.54;100.00;59916.91;5102017;28;20425;-81
2023/12/21 00:21:46;;;;;;;41.08;19.45;;;;;;;-143.54;100.00;59916.91;5093638;28;20028;-81
2023/12/21 00:24:12;;;;;;;31.65;16.30;;;;;;;-143.54;100.00;59916.91;5101298;28;20027;-80
2023/12/21 00:26:37;;;;;;;31.70;16.63;;;;;;;-143.54;100.00;59916.91;5094400;28;20399;-81
2023/12/21 00:29:02;;;;;;;36.70;16.75;;;;;;;-143.54;100.00;59916.91;5088810;28;20031;-81
2023/12/21 00:31:28;;;;;;;34.95;16.20;;;;;;;-143.54;100.00;59916.91;5101959;28;20035;-81
2023/12/21 00:33:53;;;;;;;36.47;16.35;;;;;;;-143.54;100.00;59916.91;5097456;28;20035;-81
2023/12/21 00:36:18;;;;;;;37.17;17.83;;;;;;;-143.54;100.00;59916.91;5099063;28;20042;-82
2023/12/21 00:38:44;;;;;;;37.00;18.67;;;;;;;-143.54;100.00;59916.91;5096068;28;20028;-82
2023/12/21 00:41:09;;;;;;;41.50;18.63;;;;;;;-143.54;100.00;59916.91;5098330;28;20024;-82
2023/12/21 00:43:35;;;;;;;37.22;19.15;;;;;;;-143.54;100.00;59916.91;5103628;28;20395;-83
2023/12/21 00:46:00;;;;;;;40.17;20.48;;;;;;;-143.54;100.00;59916.91;5100820;28;20499;-83
2023/12/21 00:48:26;;;;;;;43.40;21.10;;;;;;;-143.54;100.00;59916.91;5100299;28;20038;-82
2023/12/21 00:50:51;;;;;;;38.35;19.70;;;;;;;-143.54;100.00;59916.91;5102739;28;20106;-83
2023/12/21 00:53:19;;;;;;;38.88;20.52;;;;;;;-143.54;100.00;59916.91;5100161;28;20024;-83
2023/12/21 00:55:44;;;;;;;45.70;22.48;;;;;;;-143.54;100.00;59916.91;5098176;28;20028;-83
2023/12/21 00:58:09;;;;;;;40.08;21.75;;;;;;;-143.54;100.00;59916.91;5096849;28;20492;-83
2023/12/21 01:00:34;;;;;;;37.72;21.50;;;;;;;-143.54;100.00;59916.91;5100762;28;20033;-82
2023/12/21 01:03:00;;;;;;;40.72;21.77;;;;;;;-143.54;100.00;59916.91;5091628;28;20482;-83
2023/12/21 01:05:25;;;;;;;42.25;22.13;;;;;;;-143.54;100.00;59916.91;5095211;28;20031;-83
2023/12/21 01:07:50;;;;;;;41.00;21.33;;;;;;;-143.54;100.00;59916.91;5100229;28;20360;-83
2023/12/21 01:10:16;;;;;;;42.70;20.55;;;;;;;-143.54;100.00;59916.91;5100008;28;20024;-83
2023/12/21 01:12:42;;;;;;;41.17;20.23;;;;;;;-143.54;100.00;59916.91;5096062;28;20024;-83
2023/12/21 01:15:08;;;;;;;37.67;19.15;;;;;;;-143.54;100.00;59916.91;5091538;28;20055;-83
2023/12/21 01:17:34;;;;;;;38.25;18.73;;;;;;;-143.54;100.00;59916.91;5091440;28;20081;-83
2023/12/21 01:19:59;;;;;;;36.85;18.48;;;;;;;-143.54;100.00;59916.91;5098610;28;20024;-83
2023/12/21 01:22:24;;;;;;;34.83;18.08;;;;;;;-143.54;100.00;59916.91;5096280;28;20118;-83
2023/12/21 01:24:50;;;;;;;35.35;18.67;;;;;;;-143.54;100.00;59916.91;5096575;28;20023;-83
2023/12/21 01:27:15;;;;;;;39.78;18.08;;;;;;;-143.54;100.00;59916.91;5099928;28;20099;-83
2023/12/21 01:29:40;;;;;;;44.47;17.48;;;;;;;-143.54;100.00;59916.91;5098968;28;20118;-82
2023/12/21 01:32:06;;;;;;;39.65;18.77;;;;;;;-143.54;100.00;59916.91;5092481;28;20020;-82
2023/12/21 01:34:31;;;;;;;35.33;18.30;;;;;;;-143.54;100.00;59916.91;5096588;28;20475;-83
2023/12/21 01:36:57;;;;;;;40.92;19.00;;;;;;;-143.54;100.00;59916.91;5091268;28;20028;-82
2023/12/21 01:39:23;;;;;;;40.92;19.38;;;;;;;-143.54;100.00;59916.91;5099273;28;20031;-83
2023/12/21 01:41:49;;;;;;;42.53;20.83;;;;;;;-143.54;100.00;59916.91;5101486;28;20031;-83
2023/12/21 01:44:15;;;;;;;43.13;20.75;;;;;;;-143.54;100.00;59916.91;5099534;28;20081;-83
2023/12/21 01:46:40;;;;;;;36.95;19.70;;;;;;;-143.54;100.00;59916.91;5105987;28;20035;-83
2023/12/21 01:49:06;;;;;;;38.42;20.75;;;;;;;-143.54;100.00;59916.91;5103777;28;20062;-82
2023/12/21 01:51:32;;;;;;;43.10;22.10;;;;;;;-143.54;100.00;59916.91;5094320;28;20039;-82
2023/12/21 01:54:03;;;;;;;50.58;22.85;;;;;;;-143.54;100.00;59916.91;5098181;28;20081;-82
2023/12/21 01:56:29;;;;;;;44.78;22.60;;;;;;;-143.54;100.00;59916.91;5096594;28;20040;-81
2023/12/21 01:58:56;;;;;;;57.00;22.35;;;;;;;-143.54;100.00;59916.91;5104861;28;20055;-83
2023/12/21 02:01:21;;;;;;;44.17;21.88;;;;;;;-143.54;100.00;59916.91;5100278;28;20098;-83
2023/12/21 02:03:47;;;;;;;49.22;23.63;;;;;;;-143.54;100.00;59916.91;5110164;28;20115;-82
2023/12/21 02:06:12;;;;;;;54.63;24.45;;;;;;;-143.54;100.00;59916.91;5098655;28;20016;-82
2023/12/21 02:08:37;;;;;;;48.75;24.27;;;;;;;-143.54;100.00;59916.91;5105008;28;20016;-83
2023/12/21 02:11:10;;;;;;;48.50;22.98;;;;;;;-143.54;100.00;59916.91;5100186;28;20021;-83
2023/12/21 02:13:35;;;;;;;42.97;22.80;;;;;;;-143.54;100.00;59916.91;5095816;28;20107;-83
2023/12/21 02:16:14;;;;;;;50.38;24.05;;;;;;;-143.54;100.00;59916.91;5100501;28;20108;-83
2023/12/21 02:18:41;;;;;;;48.00;25.67;;;;;;;-143.54;100.00;59916.91;5093422;28;20017;-83
2023/12/21 02:21:08;;;;;;;50.60;24.08;;;;;;;-143.54;100.00;59916.91;5091217;28;20085;-83
2023/12/21 02:23:36;;;;;;;54.17;25.23;;;;;;;-143.54;100.00;59916.91;5102858;28;20069;-83
2023/12/21 02:26:02;;;;;;;53.42;24.98;;;;;;;-143.54;100.00;59916.91;5089011;28;20032;-83
2023/12/21 02:28:27;;;;;;;50.20;23.92;;;;;;;-143.54;100.00;59916.91;5103433;28;20433;-83
2023/12/21 02:30:52;;;;;;;47.08;23.67;;;;;;;-143.54;100.00;59916.91;5097626;28;20468;-82
2023/12/21 02:33:18;;;;;;;52.70;24.00;;;;;;;-143.54;100.00;59916.91;5091814;28;20036;-82
2023/12/21 02:35:43;;;;;;;52.28;24.35;;;;;;;-143.54;100.00;59916.91;5093658;28;20024;-82
2023/12/21 02:38:08;;;;;;;56.47;25.65;;;;;;;-143.54;100.00;59916.91;5103991;28;20387;-82
2023/12/21 02:40:34;;;;;;;53.28;23.23;;;;;;;-143.54;100.00;59916.91;5096210;28;20103;-82
2023/12/21 02:42:59;;;;;;;56.08;23.08;;;;;;;-143.54;100.00;59916.91;5090847;28;20420;-82
2023/12/21 02:45:24;;;;;;;53.28;21.67;;;;;;;-143.54;100.00;59916.91;5098941;28;20387;-82
2023/12/21 02:47:49;;;;;;;51.13;22.95;;;;;;;-143.54;100.00;59916.91;5085415;28;20020;-82
2023/12/21 02:50:15;;;;;;;48.40;21.25;;;;;;;-143.54;100.00;59916.91;5091802;28;20411;-83
2023/12/21 02:52:40;;;;;;;48.85;22.02;;;;;;;-143.54;100.00;59916.91;5100390;28;20039;-82
2023/12/21 02:55:06;;;;;;;41.92;20.48;;;;;;;-143.54;100.00;59916.91;5095104;28;20447;-82
2023/12/21 02:57:31;;;;;;;51.03;20.90;;;;;;;-143.54;100.00;59916.91;5093326;28;20076;-82
2023/12/21 02:59:56;;;;;;;51.08;20.40;;;;;;;-143.54;100.00;59916.91;5093766;28;20021;-82
2023/12/21 03:02:22;;;;;;;44.47;18.80;;;;;;;-143.54;100.00;59916.91;5092613;28;20855;-82
2023/12/21 03:04:47;;;;;;;40.03;18.67;;;;;;;-143.54;100.00;59916.91;5093451;28;20087;-82
2023/12/21 03:07:12;;;;;;;45.17;18.70;;;;;;;-143.54;100.00;59916.91;5099390;28;20029;-82
2023/12/21 03:09:38;;;;;;;43.15;18.33;;;;;;;-143.54;100.00;59916.91;5098672;28;20116;-82
2023/12/21 03:12:03;;;;;;;48.92;18.48;;;;;;;-143.54;100.00;59916.91;5096692;28;20020;-82
2023/12/21 03:14:29;;;;;;;46.47;18.40;;;;;;;-143.54;100.00;59916.91;5095293;28;20055;-82
2023/12/21 03:16:54;;;;;;;49.97;18.50;;;;;;;-143.54;100.00;59916.91;5095917;28;20025;-82
2023/12/21 03:19:19;;;;;;;43.72;16.70;;;;;;;-143.54;100.00;59916.91;5102604;28;20047;-82
2023/12/21 03:21:45;;;;;;;47.10;17.55;;;;;;;-143.54;100.00;59916.91;5101667;28;20384;-82
2023/12/21 03:24:10;;;;;;;51.17;16.38;;;;;;;-143.54;100.00;59916.91;5094439;28;20040;-82
2023/12/21 03:26:35;;;;;;;51.13;16.38;;;;;;;-143.54;100.00;59916.91;5098021;28;20095;-82
2023/12/21 03:29:00;;;;;;;39.05;15.15;;;;;;;-143.54;100.00;59916.91;5100539;28;20383;-82
2023/12/21 03:31:26;;;;;;;40.58;14.82;;;;;;;-143.54;100.00;59916.91;5101900;28;20356;-82
2023/12/21 03:33:51;;;;;;;46.97;15.02;;;;;;;-143.54;100.00;59916.91;5099540;28;20036;-82
2023/12/21 03:36:17;;;;;;;45.03;15.88;;;;;;;-143.54;100.00;59916.91;5097755;28;20365;-82
2023/12/21 03:38:42;;;;;;;46.53;14.32;;;;;;;-143.54;100.00;59916.91;5093127;28;20057;-82
2023/12/21 03:41:08;;;;;;;31.80;13.55;;;;;;;-143.54;100.00;59916.91;5099951;28;20059;-82
2023/12/21 03:43:33;;;;;;;50.70;15.48;;;;;;;-143.54;100.00;59916.91;5096149;28;20032;-82
2023/12/21 03:45:58;;;;;;;40.72;15.32;;;;;;;-143.54;100.00;59916.91;5100441;28;20459;-82
2023/12/21 03:48:24;;;;;;;43.10;14.05;;;;;;;-143.54;100.00;59916.91;5100660;28;20028;-81
2023/12/21 03:50:49;;;;;;;43.20;13.55;;;;;;;-143.54;100.00;59916.91;5098615;28;20032;-82
2023/12/21 03:53:16;;;;;;;47.45;16.10;;;;;;;-143.54;100.00;59916.91;5093248;28;20480;-81
2023/12/21 03:55:42;;;;;;;44.55;15.85;;;;;;;-143.54;100.00;59916.91;5092109;28;20046;-81
2023/12/21 03:58:08;;;;;;;47.90;15.90;;;;;;;-143.54;100.00;59916.91;5099276;28;20036;-81
2023/12/21 04:00:33;;;;;;;46.28;15.75;;;;;;;-143.54;100.00;59916.91;5100524;28;20096;-81
2023/12/21 04:02:59;;;;;;;38.00;17.35;;;;;;;-143.54;100.00;59916.91;5096509;28;20460;-81
2023/12/21 04:05:24;;;;;;;45.80;18.42;;;;;;;-143.54;100.00;59916.91;5100766;28;20127;-81
2023/12/21 04:07:49;;;;;;;42.72;17.33;;;;;;;-143.54;100.00;59916.91;5104080;28;20027;-81
2023/12/21 04:10:15;;;;;;;56.50;18.25;;;;;;;-143.54;100.00;59916.91;5092243;28;20024;-81
2023/12/21 04:12:41;;;;;;;60.47;20.23;;;;;;;-143.54;100.00;59916.91;5103058;28;20023;-81
2023/12/21 04:15:08;;;;;;;50.75;19.10;;;;;;;-143.54;100.00;59916.91;5096168;28;20028;-81
2023/12/21 04:17:34;;;;;;;53.40;18.80;;;;;;;-143.54;100.00;59916.91;5099296;28;20437;-81
2023/12/21 04:20:00;;;;;;;53.53;19.20;;;;;;;-143.54;100.00;59916.91;5099481;28;20115;-81
2023/12/21 04:22:25;;;;;;;47.90;18.45;;;;;;;-143.54;100.00;59916.91;5097890;28;20117;-81
2023/12/21 04:24:50;;;;;;;50.88;18.90;;;;;;;-143.54;100.00;59916.91;5104304;28;20097;-81
2023/12/21 04:27:15;;;;;;;48.75;19.27;;;;;;;-143.54;100.00;59916.91;5095288;28;20024;-81
2023/12/21 04:29:41;;;;;;;52.95;19.40;;;;;;;-143.54;100.00;59916.91;5099652;28;20024;-81
2023/12/21 04:32:06;;;;;;;50.90;20.55;;;;;;;-143.54;100.00;59916.91;5095760;28;20032;-81
2023/12/21 04:34:32;;;;;;;59.80;20.95;;;;;;;-143.54;100.00;59916.91;5092736;28;20047;-81
2023/12/21 04:36:57;;;;;;;54.70;19.50;;;;;;;-143.54;100.00;59916.91;5100741;28;20020;-81
2023/12/21 04:39:22;;;;;;;56.35;20.60;;;;;;;-143.54;100.00;59916.91;5098298;28;20104;-81
2023/12/21 04:41:49;;;;;;;56.00;20.95;;;;;;;-143.54;100.00;59916.91;5090351;28;20024;-81
2023/12/21 04:44:15;;;;;;;56.13;21.25;;;;;;;-143.54;100.00;59916.91;5092066;28;20028;-81
2023/12/21 04:46:40;;;;;;;53.65;20.05;;;;;;;-143.54;100.00;59916.91;5098409;28;20032;-81
2023/12/21 04:49:06;;;;;;;54.67;21.20;;;;;;;-143.54;100.00;59916.91;5098364;28;20728;-81
2023/12/21 04:51:31;;;;;;;52.53;20.67;;;;;;;-143.54;100.00;59916.91;5100830;28;20061;-81
2023/12/21 04:53:57;;;;;;;47.65;20.00;;;;;;;-143.54;100.00;59916.91;5092126;28;20470;-81
2023/12/21 04:56:22;;;;;;;55.33;20.27;;;;;;;-143.54;100.00;59916.91;5092511;28;20043;-81
2023/12/21 04:58:47;;;;;;;49.88;20.42;;;;;;;-143.54;100.00;59916.91;5099785;28;20051;-81
2023/12/21 05:01:12;;;;;;;48.60;18.85;;;;;;;-143.54;100.00;59916.91;5095724;28;20020;-81
2023/12/21 05:03:38;;;;;;;47.75;18.10;;;;;;;-143.54;100.00;59916.91;5100416;28;20459;-81
2023/12/21 05:06:03;;;;;;;42.08;18.05;;;;;;;-143.54;100.00;59916.91;5099732;28;20111;-81
2023/12/21 05:08:29;;;;;;;44.25;17.15;;;;;;;-143.54;100.00;59916.91;5100046;28;20039;-81
2023/12/21 05:10:55;;;;;;;39.55;17.10;;;;;;;-143.54;100.00;59916.91;5098469;28;20032;-81
2023/12/21 05:13:20;;;;;;;42.28;16.73;;;;;;;-143.54;100.00;59916.91;5091257;28;20036;-81
2023/12/21 05:15:45;;;;;;;42.15;17.55;;;;;;;-143.54;100.00;59916.91;5092176;28;20383;-81
2023/12/21 05:18:11;;;;;;;45.90;16.52;;;;;;;-143.54;100.00;59916.91;5095740;28;20024;-81
2023/12/21 05:20:36;;;;;;;36.85;15.68;;;;;;;-143.54;100.00;59916.91;5095576;28;20056;-81
2023/12/21 05:23:01;;;;;;;35.10;15.48;;;;;;;-143.54;100.00;59916.91;5094723;28;20515;-81
2023/12/21 05:25:27;;;;;;;36.20;15.23;;;;;;;-143.54;100.00;59916.91;5086747;28;20087;-81
2023/12/21 05:27:52;;;;;;;38.75;15.38;;;;;;;-143.54;100.00;59916.91;5104662;28;20058;-81
2023/12/21 05:30:18;;;;;;;36.55;13.60;;;;;;;-143.54;100.00;59916.91;5094855;28;20055;-81
2023/12/21 05:32:44;;;;;;;31.83;13.77;;;;;;;-143.54;100.00;59916.91;5104140;28;20059;-81
2023/12/21 05:35:10;;;;;;;30.73;12.15;;;;;;;-143.54;100.00;59916.91;5095405;28;20067;-81
2023/12/21 05:37:35;;;;;;;36.60;11.68;;;;;;;-143.54;100.00;59916.91;5085846;28;20016;-81
2023/12/21 05:40:00;;;;;;;33.88;12.75;;;;;;;-143.54;100.00;59916.91;5095056;28;20468;-81
2023/12/21 05:42:26;;;;;;;30.67;12.02;;;;;;;-143.54;100.00;59916.91;5096002;28;20036;-81
2023/12/21 05:44:52;;;;;;;26.05;10.88;;;;;;;-143.54;100.00;59916.91;5096063;28;20409;-81
2023/12/21 05:47:17;;;;;;;28.95;10.25;;;;;;;-143.54;100.00;59916.91;5095601;28;20099;-81
2023/12/21 05:49:43;;;;;;;19.05;8.98;;;;;;;-143.54;100.00;59916.91;5094504;28;20039;-81
2023/12/21 05:52:08;;;;;;;22.17;8.48;;;;;;;-143.54;100.00;59916.91;5100833;28;20024;-81
2023/12/21 05:54:34;;;;;;;24.42;8.13;;;;;;;-143.54;100.00;59916.91;5098080;28;20020;-81
2023/12/21 05:57:01;;;;;;;30.83;9.52;;;;;;;-143.54;100.00;59916.91;5093920;28;20043;-81
2023/12/21 05:59:27;;;;;;;20.40;8.60;;;;;;;-143.54;100.00;59916.91;5097782;28;20028;-81
2023/12/21 06:01:52;;;;;;;19.00;8.15;;;;;;;-143.54;100.00;59916.91;5093842;28;20364;-81
2023/12/21 06:04:18;;;;;;;24.70;8.88;;;;;;;-143.54;100.00;59916.91;5086118;28;20028;-81
2023/12/21 06:06:47;;;;;;;29.88;8.95;;;;;;;-143.54;100.00;59916.91;5097077;28;20055;-81
2023/12/21 06:09:13;;;;;;;23.65;9.57;;;;;;;-143.54;100.00;59916.91;5086545;28;20460;-81
2023/12/21 06:11:38;;;;;;;27.38;9.65;;;;;;;-143.54;100.00;59916.91;5099982;28;20041;-81
2023/12/21 06:14:05;;;;;;;27.35;10.20;;;;;;;-143.54;100.00;59916.91;5095704;28;20554;-81
2023/12/21 06:16:30;;;;;;;26.90;11.38;;;;;;;-143.54;100.00;59916.91;5099130;28;20484;-81
2023/12/21 06:18:56;;;;;;;26.70;11.57;;;;;;;-143.54;100.00;59916.91;5089736;28;20028;-81
2023/12/21 06:21:23;;;;;;;23.95;11.57;;;;;;;-143.54;100.00;59916.91;5098776;28;20024;-81
2023/12/21 06:23:48;;;;;;;28.05;12.90;;;;;;;-143.54;100.00;59916.91;5099273;28;20026;-81
2023/12/21 06:26:14;;;;;;;31.90;13.65;;;;;;;-143.54;100.00;59916.91;5098296;28;20019;-81
2023/12/21 06:28:40;;;;;;;26.98;12.70;;;;;;;-143.54;100.00;59916.91;5101370;28;20028;-81
2023/12/21 06:31:05;;;;;;;32.70;14.27;;;;;;;-143.54;100.00;59916.91;5098350;28;20024;-81
2023/12/21 06:33:31;;;;;;;27.77;14.07;;;;;;;-143.54;100.00;59916.91;5099258;28;20039;-81
2023/12/21 06:35:56;;;;;;;32.55;14.98;;;;;;;-143.54;100.00;59916.91;5100275;28;20016;-81
2023/12/21 06:38:21;;;;;;;27.67;15.25;;;;;;;-143.54;100.00;59916.91;5102417;28;20432;-81
2023/12/21 06:40:47;;;;;;;29.85;14.00;;;;;;;-143.54;100.00;59916.91;5102197;28;20111;-81
2023/12/21 06:43:12;;;;;;;26.40;13.70;;;;;;;-143.54;100.00;59916.91;5102388;28;20027;-81
2023/12/21 06:45:38;;;;;;;33.63;14.25;;;;;;;-143.54;100.00;59916.91;5097459;28;20024;-81
2023/12/21 06:48:04;;;;;;;27.65;13.88;;;;;;;-143.54;100.00;59916.91;5100203;28;20179;-81
2023/12/21 06:50:29;;;;;;;33.47;14.02;;;;;;;-143.54;100.00;59916.91;5090722;28;20036;-81
2023/12/21 06:52:54;;;;;;;32.90;13.75;;;;;;;-143.54;100.00;59916.91;5102085;28;20036;-82
2023/12/21 06:55:21;;;;;;;32.30;13.40;;;;;;;-143.54;100.00;59916.91;5099423;28;20563;-81
2023/12/21 06:57:46;;;;;;;31.00;13.00;;;;;;;-143.54;100.00;59916.91;5096639;28;20047;-81
2023/12/21 07:00:12;;;;;;;30.92;12.60;;;;;;;-143.54;100.00;59916.91;5098943;28;20028;-81
2023/12/21 07:02:37;;;;;;;31.48;12.35;;;;;;;-143.54;100.00;59916.91;5090490;28;20043;-81
2023/12/21 07:05:03;;;;;;;21.70;10.93;;;;;;;-143.54;100.00;59916.91;5087305;28;20480;-81
2023/12/21 07:07:29;;;;;;;29.58;12.13;;;;;;;-143.54;100.00;59916.91;5102225;28;20431;-82
2023/12/21 07:09:54;;;;;;;24.13;11.70;;;;;;;-143.54;100.00;59916.91;5096540;28;20024;-81
2023/12/21 07:12:20;;;;;;;29.83;12.55;;;;;;;-143.54;100.00;59916.91;5103575;28;20112;-81
2023/12/21 07:14:46;;;;;;;28.92;12.30;;;;;;;-143.54;100.00;59916.91;5095153;28;20024;-81
2023/12/21 07:17:12;;;;;;;29.95;11.70;;;;;;;-143.54;100.00;59916.91;5098022;28;20024;-82
2023/12/21 07:19:38;;;;;;;21.35;11.75;;;;;;;-143.54;100.00;59916.91;5100689;28;20567;-81
2023/12/21 07:22:06;;;;;;;33.60;12.50;;;;;;;-143.54;100.00;59916.91;5094682;28;20032;-82
2023/12/21 07:24:31;;;;;;;30.00;12.43;;;;;;;-143.54;100.00;59916.91;5096317;28;20031;-80
2023/12/21 07:26:57;;;;;;;25.23;11.45;;;;;;;-143.54;100.00;59916.91;5100192;28;20027;-80
2023/12/21 07:29:22;;;;;;;25.05;11.00;;;;;;;-143.54;100.00;59916.91;5094019;28;20040;-81
2023/12/21 07:31:47;;;;;;;23.00;10.48;;;;;;;-143.54;100.00;59916.91;5092819;28;20372;-81
2023/12/21 07:34:13;;;;;;;23.45;11.07;;;;;;;-143.54;100.00;59916.91;5106973;28;20145;-80
2023/12/21 07:36:38;;;;;;;18.60;9.60;;;;;;;-143.54;100.00;59916.91;5096148;28;20052;-81
2023/12/21 07:39:04;;;;;;;24.38;9.77;;;;;;;-143.54;100.00;59916.91;5100398;28;20471;-81
2023/12/21 07:41:30;;;;;;;20.67;8.48;;;;;;;-143.54;100.00;59916.91;5096950;28;20027;-81
2023/12/21 07:43:57;;;;;;;21.70;8.95;;;;;;;-143.54;100.00;59916.91;5096544;28;20016;-81
2023/12/21 07:46:23;;;;;;;18.25;8.68;;;;;;;-143.54;100.00;59916.91;5104918;28;20032;-80
2023/12/21 07:48:49;;;;;;;20.58;9.45;;;;;;;-143.54;100.00;59916.91;5099564;28;20027;-79
2023/12/21 07:51:15;;;;;;;20.50;9.35;;;;;;;-143.54;100.00;59916.91;5102965;28;20023;-80
2023/12/21 07:53:41;;;;;;;19.45;9.88;;;;;;;-143.54;100.00;59916.91;5098290;28;20758;-80
2023/12/21 07:56:07;;;;;;;20.80;9.77;;;;;;;-143.54;100.00;59916.91;5096356;28;20073;-80
2023/12/21 07:58:33;;;;;;;24.45;8.70;;;;;;;-143.54;100.00;59916.91;5098269;28;20047;-80
2023/12/21 08:00:59;;;;;;;20.08;10.98;;;;;;;-143.54;100.00;59916.91;5090937;28;20042;-80
2023/12/21 08:03:24;;;;;;;17.45;8.73;;;;;;;-143.54;100.00;59916.91;5095455;28;20023;-81
2023/12/21 08:05:50;;;;;;;19.13;9.10;;;;;;;-143.54;100.00;59916.91;5090607;28;20047;-80
2023/12/21 08:08:15;;;;;;;20.40;9.25;;;;;;;-143.54;100.00;59916.91;5093407;28;20034;-79
2023/12/21 08:10:40;;;;;;;20.25;8.40;;;;;;;-143.54;100.00;59916.91;5103651;28;20047;-79
2023/12/21 08:13:08;;;;;;;19.15;9.25;;;;;;;-143.54;100.00;59916.91;5098029;28;20040;-79
2023/12/21 08:15:33;;;;;;;23.23;9.25;;;;;;;-143.54;100.00;59916.91;5099823;28;20032;-80
2023/12/21 08:17:59;;;;;;;17.10;8.50;;;;;;;-143.54;100.00;59916.91;5100985;28;20031;-80
2023/12/21 08:20:25;;;;;;;12.73;7.15;;;;;;;-143.54;100.00;59916.91;5090043;28;20059;-80
2023/12/21 08:22:50;;;;;;;17.90;8.40;;;;;;;-143.54;100.00;59916.91;5099544;28;20036;-80
2023/12/21 08:25:16;;;;;;;14.75;7.50;;;;;;;-143.54;100.00;59916.91;5081678;28;20032;-79
2023/12/21 08:27:41;;;;;;;16.10;8.70;;;;;;;-143.54;100.00;59916.91;5102589;28;20081;-80
2023/12/21 08:30:08;;;;;;;20.30;7.95;;;;;;;-143.54;100.00;59916.91;5087633;28;20111;-80
2023/12/21 08:32:33;;;;;;;14.88;9.02;;;;;;;-143.54;100.00;59916.91;5092872;28;20067;-80
2023/12/21 08:35:00;;;;;;;17.58;7.68;;;;;;;-143.54;100.00;59916.91;5097657;28;20071;-80
2023/12/21 08:37:25;;;;;;;17.40;8.13;;;;;;;-143.54;100.00;59916.91;5100509;28;20036;-80
2023/12/21 08:39:50;;;;;;;17.40;7.90;;;;;;;-143.54;100.00;59916.91;5101182;28;20055;-80
2023/12/21 08:42:16;;;;;;;18.92;8.82;;;;;;;-143.54;100.00;59916.91;5095768;28;20470;-80
2023/12/21 08:44:41;;;;;;;16.35;8.02;;;;;;;-143.54;100.00;59916.91;5105314;28;20487;-80
2023/12/21 08:47:06;;;;;;;15.82;7.65;;;;;;;-143.54;100.00;59916.91;5094163;28;20039;-80
2023/12/21 08:49:32;;;;;;;21.38;8.23;;;;;;;-143.54;100.00;59916.91;5096699;28;20057;-80
2023/12/21 08:51:57;;;;;;;16.77;7.63;;;;;;;-143.54;100.00;59916.91;5098262;28;20490;-81
2023/12/21 08:54:22;;;;;;;17.65;8.60;;;;;;;-143.54;100.00;59916.91;5101237;28;20027;-80
2023/12/21 08:56:50;;;;;;;15.50;8.98;;;;;;;-143.54;100.00;59916.91;5106669;28;20360;-81
2023/12/21 08:59:16;;;;;;;16.25;8.48;;;;;;;-143.54;100.00;59916.91;5102015;28;20028;-81
2023/12/21 09:01:41;;;;;;;19.65;8.93;;;;;;;-143.54;100.00;59916.91;5106351;28;20058;-80
2023/12/21 09:04:06;;;;;;;13.85;8.48;;;;;;;-143.54;100.00;59916.91;5101040;28;20066;-79
2023/12/21 09:06:32;;;;;;;23.92;9.43;;;;;;;-143.54;100.00;59916.91;5098859;28;20028;-79
2023/12/21 09:08:58;;;;;;;14.73;9.40;;;;;;;-143.54;100.00;59916.91;5102365;28;20034;-79
2023/12/21 09:11:25;;;;;;;18.85;9.38;;;;;;;-143.54;100.00;59916.91;5104252;28;20476;-79
2023/12/21 09:13:50;;;;;;;17.90;9.75;;;;;;;-143.54;100.00;59916.91;5102034;28;20020;-80
2023/12/21 09:16:17;;;;;;;19.65;7.93;;;;;;;-143.54;100.00;59916.91;5094275;28;20049;-79
2023/12/21 09:18:46;;;;;;;15.23;8.02;;;;;;;-143.54;100.00;59916.91;5100201;28;20126;-79
2023/12/21 09:21:11;;;;;;;17.92;8.27;;;;;;;-143.54;100.00;59916.91;5099264;28;20028;-80
2023/12/21 09:23:37;;;;;;;13.80;8.32;;;;;;;-143.54;100.00;59916.91;5101900;28;20047;-79
2023/12/21 09:26:03;;;;;;;18.67;8.98;;;;;;;-143.54;100.00;59916.91;5096749;28;20019;-79
2023/12/21 09:28:28;;;;;;;15.27;7.78;;;;;;;-143.54;100.00;59916.91;5097394;28;20046;-79
2023/12/21 09:30:55;;;;;;;16.10;7.53;;;;;;;-143.54;100.00;59916.91;5098803;28;20050;-79
2023/12/21 09:33:20;;;;;;;14.13;7.10;;;;;;;-143.54;100.00;59916.91;5095907;28;20479;-79
2023/12/21 09:35:46;;;;;;;15.30;6.75;;;;;;;-143.54;100.00;59916.91;5093181;28;20091;-79
2023/12/21 09:38:11;;;;;;;18.85;6.25;;;;;;;-143.54;100.00;59916.91;5099035;28;20368;-80
2023/12/21 09:40:37;;;;;;;14.00;5.30;;;;;;;-143.54;100.00;59916.91;5095877;28;20067;-79
2023/12/21 09:43:05;;;;;;;15.48;5.15;;;;;;;-143.54;100.00;59916.91;5100109;28;20031;-80
2023/12/21 09:45:32;;;;;;;16.52;5.18;;;;;;;-143.54;100.00;59916.91;5096998;28;20038;-79
2023/12/21 09:47:58;;;;;;;15.98;4.80;;;;;;;-143.54;100.00;59916.91;5102423;28;20027;-79
2023/12/21 09:50:25;;;;;;;11.93;3.75;;;;;;;-143.54;100.00;59916.91;5106379;28;20072;-79
2023/12/21 09:52:51;;;;;;;12.45;3.67;;;;;;;-143.54;100.00;59916.91;5096108;28;20016;-79
2023/12/21 09:55:19;;;;;;;20.92;3.65;;;;;;;-143.54;100.00;59916.91;5102443;28;20023;-79
2023/12/21 09:57:46;;;;;;;6.20;3.10;;;;;;;-143.54;100.00;59916.91;5099187;28;20115;-79
2023/12/21 10:00:12;;;;;;;9.15;3.55;;;;;;;-143.54;100.00;59916.91;5103626;28;20027;-79
2023/12/21 10:02:37;;;;;;;17.90;3.30;;;;;;;-143.54;100.00;59916.91;5097729;28;20093;-78
2023/12/21 10:05:05;;;;;;;12.57;2.80;;;;;;;-143.54;100.00;59916.91;5099766;28;20030;-79
2023/12/21 10:07:31;;;;;;;14.02;3.75;;;;;;;-143.54;100.00;59916.91;5098010;28;20024;-79
2023/12/21 10:09:57;;;;;;;17.90;3.42;;;;;;;-143.54;100.00;59916.91;5093295;28;20147;-77
2023/12/21 10:12:23;;;;;;;11.82;3.20;;;;;;;-143.54;100.00;59916.91;5108968;28;20036;-77
2023/12/21 10:15:03;;;;;;;7.90;3.28;;;;;;;-143.54;100.00;59916.91;5101834;28;20446;-77
2023/12/21 10:17:29;;;;;;;8.27;3.25;;;;;;;-143.54;100.00;59916.91;5099558;28;20046;-78
2023/12/21 10:19:57;;;;;;;8.82;3.20;;;;;;;-143.54;100.00;59916.91;5097024;28;20039;-78
2023/12/21 10:22:22;;;;;;;12.18;3.90;;;;;;;-143.54;100.00;59916.91;5098173;28;20032;-77
2023/12/21 10:24:50;;;;;;;8.95;3.90;;;;;;;-143.54;100.00;59916.91;5093995;28;20035;-77
2023/12/21 10:27:16;;;;;;;12.88;3.25;;;;;;;-143.54;100.00;59916.91;5099222;28;20023;-78
2023/12/21 10:29:41;;;;;;;10.70;3.22;;;;;;;-143.54;100.00;59916.91;5100977;28;20024;-78
2023/12/21 10:32:08;;;;;;;13.70;3.47;;;;;;;-143.54;100.00;59916.91;5095593;28;20028;-78
2023/12/21 10:34:35;;;;;;;16.95;3.03;;;;;;;-143.54;100.00;59916.91;5094871;28;20035;-79
2023/12/21 10:37:01;;;;;;;15.02;3.25;;;;;;;-143.54;100.00;59916.91;5096439;28;20020;-76
2023/12/21 10:39:27;;;;;;;17.75;3.25;;;;;;;-143.54;100.00;59916.91;5098665;28;20506;-79
2023/12/21 10:41:56;;;;;;;16.23;2.85;;;;;;;-143.54;100.00;59916.91;5096121;28;20096;-80
2023/12/21 10:44:21;;;;;;;9.75;2.20;;;;;;;-143.54;100.00;59916.91;5098238;28;20024;-78
2023/12/21 10:46:47;;;;;;;6.35;2.03;;;;;;;-143.54;100.00;59916.91;5100648;28;20471;-80
2023/12/21 10:49:14;;;;;;;7.97;2.20;;;;;;;-143.54;100.00;59916.91;5101604;28;20028;-79
2023/12/21 10:51:43;;;;;;;11.70;2.28;;;;;;;-143.54;100.00;59916.91;5097799;28;20020;-80